Terminal Aerodrome Forecast
Issued by NWS Spokane, WA

Home | Current Version | Previous Version | Text Only | Print | Product List | Glossary On
Versions: 1 2 3 4 5 6 7 8 9 10 11 12 13
000
FTUS46 KOTX 051143
TAFLWS
TAF
KLWS 051143Z 0512/0612 29006KT P6SM VCSH SCT080 BKN110
     FM052300 30010KT P6SM -SHRA VCTS SCT060CB BKN120
     FM060400 15004KT P6SM -SHRA BKN070 OVC100=

USA.gov is the U.S. government's official web portal to all federal, state and local government web resources and services.